Time;durP1;ratioP1;P1;durP2;ratioP2;P2;SDS_P1;SDS_P2;PMS_P1;PMS_P2;Temp;Humidity;BMP_temperature;BMP_pressure;BME280_temperature;BME280_humidity;BME280_pressure;Samples;Min_cycle;Max_cycle;Signal;HPM_P1;HPM_P2
2024/01/19 00:01:23;;;;;;;5.45;4.20;;;2.20;80.30;;;;;;5072929;28;20225;-81
2024/01/19 00:03:50;;;;;;;7.82;4.90;;;2.20;80.30;;;;;;5072477;28;20217;-79
2024/01/19 00:06:17;;;;;;;6.22;4.60;;;2.20;80.30;;;;;;5072937;28;20186;-80
2024/01/19 00:08:44;;;;;;;5.50;4.38;;;2.20;80.30;;;;;;5072794;28;20241;-80
2024/01/19 00:11:14;;;;;;;8.57;4.93;;;2.20;80.30;;;;;;5072595;28;20656;-80
2024/01/19 00:13:41;;;;;;;6.10;4.85;;;2.20;81.40;;;;;;5073180;28;20194;-80
2024/01/19 00:16:08;;;;;;;8.65;5.75;;;2.20;80.70;;;;;;5072872;28;20263;-80
2024/01/19 00:18:36;;;;;;;6.70;4.60;;;2.20;80.50;;;;;;5073029;28;20186;-80
2024/01/19 00:21:04;;;;;;;7.25;5.50;;;2.20;80.70;;;;;;5076388;28;20186;-80
2024/01/19 00:23:31;;;;;;;10.98;5.95;;;2.20;82.00;;;;;;5076058;28;20201;-80
2024/01/19 00:25:58;;;;;;;7.57;5.70;;;2.20;81.10;;;;;;5075903;28;20243;-80
2024/01/19 00:28:25;;;;;;;9.50;5.95;;;2.20;81.20;;;;;;5075888;28;20232;-80
2024/01/19 00:30:52;;;;;;;18.83;7.28;;;2.20;80.90;;;;;;5076217;28;20186;-80
2024/01/19 00:33:19;;;;;;;8.50;5.40;;;2.20;80.80;;;;;;5075744;28;20514;-80
2024/01/19 00:35:47;;;;;;;15.05;5.78;;;2.20;80.40;;;;;;5076216;28;20190;-79
2024/01/19 00:38:14;;;;;;;8.40;5.72;;;2.10;80.00;;;;;;5075722;28;20190;-81
2024/01/19 00:40:41;;;;;;;6.97;5.47;;;2.10;80.00;;;;;;5076071;28;20187;-80
2024/01/19 00:43:09;;;;;;;6.95;4.50;;;2.10;80.60;;;;;;5075538;28;20190;-80
2024/01/19 00:45:36;;;;;;;9.20;6.20;;;2.10;80.30;;;;;;5075855;28;20236;-80
2024/01/19 00:48:03;;;;;;;7.78;5.85;;;2.20;80.60;;;;;;5075464;28;20240;-80
2024/01/19 00:50:30;;;;;;;9.13;5.47;;;2.20;80.50;;;;;;5075433;28;20186;-80
2024/01/19 00:52:58;;;;;;;8.55;5.07;;;2.20;80.40;;;;;;5075360;28;20231;-80
2024/01/19 00:55:25;;;;;;;10.25;6.45;;;2.10;80.40;;;;;;5075356;28;20194;-80
2024/01/19 00:57:52;;;;;;;9.20;5.70;;;2.10;80.80;;;;;;5075652;28;20182;-80
2024/01/19 01:00:19;;;;;;;9.30;5.03;;;2.10;81.10;;;;;;5075574;28;20272;-80
2024/01/19 01:02:46;;;;;;;6.72;4.90;;;2.10;81.10;;;;;;5075320;28;20703;-80
2024/01/19 01:05:13;;;;;;;6.88;4.75;;;2.10;81.10;;;;;;5075379;28;20292;-80
2024/01/19 01:07:40;;;;;;;7.25;4.65;;;2.10;81.00;;;;;;5075137;28;20695;-81
2024/01/19 01:10:10;;;;;;;7.43;4.88;;;2.10;80.80;;;;;;5075549;28;20281;-80
2024/01/19 01:12:36;;;;;;;9.82;4.20;;;2.10;80.20;;;;;;5075305;28;20197;-80
2024/01/19 01:15:04;;;;;;;5.47;3.95;;;2.10;80.40;;;;;;5075162;28;20310;-80
2024/01/19 01:17:31;;;;;;;18.38;4.07;;;2.10;80.50;;;;;;5074984;28;20214;-80
2024/01/19 01:19:58;;;;;;;6.57;3.88;;;2.10;79.90;;;;;;5075103;28;20272;-81
2024/01/19 01:22:26;;;;;;;5.75;3.67;;;2.10;79.50;;;;;;5075192;28;20277;-80
2024/01/19 01:24:53;;;;;;;5.65;3.90;;;2.10;79.40;;;;;;5075193;28;20221;-80
2024/01/19 01:27:21;;;;;;;6.30;4.43;;;2.00;79.00;;;;;;5073429;28;20269;-80
2024/01/19 01:29:48;;;;;;;7.15;4.00;;;2.00;79.00;;;;;;5074192;28;20209;-80
2024/01/19 01:32:16;;;;;;;6.20;4.40;;;1.90;78.90;;;;;;5075248;28;20189;-80
2024/01/19 01:34:43;;;;;;;7.50;3.78;;;1.90;79.20;;;;;;5074562;28;20285;-80
2024/01/19 01:37:11;;;;;;;5.60;4.00;;;1.90;79.00;;;;;;5073986;28;20182;-80
2024/01/19 01:39:38;;;;;;;7.10;3.92;;;2.00;78.30;;;;;;5075085;28;20189;-80
2024/01/19 01:42:05;;;;;;;5.63;3.50;;;1.90;78.60;;;;;;5074680;28;20516;-80
2024/01/19 01:44:34;;;;;;;9.80;4.75;;;1.90;78.80;;;;;;5074374;28;20202;-80
2024/01/19 01:47:01;;;;;;;7.35;4.25;;;1.90;79.20;;;;;;5074610;28;20524;-80
2024/01/19 01:49:28;;;;;;;11.50;4.47;;;1.90;79.30;;;;;;5074085;28;20182;-81
2024/01/19 01:51:56;;;;;;;7.22;4.22;;;1.80;79.10;;;;;;5074208;28;20239;-80
2024/01/19 01:54:23;;;;;;;8.30;4.45;;;1.80;79.40;;;;;;5074033;28;20190;-80
2024/01/19 01:56:50;;;;;;;11.50;4.57;;;1.80;80.50;;;;;;5074220;28;20240;-80
2024/01/19 01:59:19;;;;;;;7.68;4.93;;;1.80;79.60;;;;;;5074316;28;20186;-80
2024/01/19 02:01:48;;;;;;;8.35;4.95;;;1.80;79.70;;;;;;5074627;28;20186;-80
2024/01/19 02:04:16;;;;;;;13.23;5.60;;;1.80;79.40;;;;;;5074213;28;20224;-80
2024/01/19 02:06:44;;;;;;;5.63;4.00;;;1.80;79.90;;;;;;5074217;28;20179;-80
2024/01/19 02:09:11;;;;;;;10.98;4.60;;;1.80;80.00;;;;;;5073668;28;20189;-80
2024/01/19 02:11:40;;;;;;;8.63;5.10;;;1.80;79.80;;;;;;5074440;28;20232;-80
2024/01/19 02:14:09;;;;;;;7.10;4.40;;;1.80;79.80;;;;;;5073796;28;20190;-80
2024/01/19 02:16:36;;;;;;;5.60;4.18;;;1.80;79.50;;;;;;5073765;28;20222;-79
2024/01/19 02:19:05;;;;;;;7.10;3.70;;;1.80;79.30;;;;;;5073456;28;20182;-80
2024/01/19 02:21:32;;;;;;;10.00;5.03;;;1.80;79.40;;;;;;5073536;28;20186;-80
2024/01/19 02:24:02;;;;;;;8.50;4.50;;;1.80;79.30;;;;;;5073525;28;20186;-80
2024/01/19 02:26:32;;;;;;;9.10;4.80;;;1.70;78.90;;;;;;5073521;28;20777;-80
2024/01/19 02:28:59;;;;;;;5.72;3.45;;;1.80;79.30;;;;;;5073097;28;20176;-80
2024/01/19 02:31:27;;;;;;;5.20;3.38;;;1.80;79.20;;;;;;5072535;28;20235;-80
2024/01/19 02:33:54;;;;;;;6.95;4.32;;;1.80;79.50;;;;;;5070714;28;20182;-80
2024/01/19 02:36:21;;;;;;;7.35;3.85;;;1.70;79.30;;;;;;5073363;28;20724;-79
2024/01/19 02:38:49;;;;;;;5.60;3.40;;;1.70;79.60;;;;;;5073998;28;20186;-80
2024/01/19 02:41:16;;;;;;;5.72;3.83;;;1.70;79.70;;;;;;5072552;28;20525;-80
2024/01/19 02:43:44;;;;;;;8.27;4.53;;;1.70;79.70;;;;;;5073706;28;20187;-80
2024/01/19 02:46:14;;;;;;;7.55;3.72;;;1.70;79.80;;;;;;5073196;28;20258;-80
2024/01/19 02:48:42;;;;;;;5.45;4.30;;;1.70;80.00;;;;;;5073826;28;20182;-80
2024/01/19 02:51:09;;;;;;;6.78;5.00;;;1.70;79.90;;;;;;5073153;28;20185;-80
2024/01/19 02:53:36;;;;;;;10.45;4.35;;;1.80;80.00;;;;;;5073136;28;20197;-80
2024/01/19 02:56:04;;;;;;;6.88;4.25;;;1.70;79.80;;;;;;5073461;28;20189;-80
2024/01/19 02:58:31;;;;;;;6.35;4.38;;;1.70;79.70;;;;;;5073400;28;20193;-80
2024/01/19 03:01:00;;;;;;;10.70;3.70;;;1.70;79.40;;;;;;5065948;28;20190;-80
2024/01/19 03:03:27;;;;;;;7.13;3.97;;;1.80;78.90;;;;;;5053065;28;20541;-80
2024/01/19 03:05:54;;;;;;;7.60;4.70;;;1.80;78.90;;;;;;5052876;28;20215;-80
2024/01/19 03:08:23;;;;;;;13.85;5.60;;;1.80;78.30;;;;;;5053023;28;20191;-80
2024/01/19 03:10:50;;;;;;;5.90;3.90;;;1.80;78.40;;;;;;5058264;28;20189;-81
2024/01/19 03:13:17;;;;;;;7.13;3.85;;;1.80;77.90;;;;;;5072999;28;20236;-80
2024/01/19 03:15:44;;;;;;;10.38;5.15;;;1.70;77.80;;;;;;5073055;28;20301;-81
2024/01/19 03:18:13;;;;;;;10.02;4.40;;;1.70;78.30;;;;;;5073607;28;20189;-80
2024/01/19 03:20:40;;;;;;;6.97;3.67;;;1.60;78.10;;;;;;5072876;28;20174;-81
2024/01/19 03:23:08;;;;;;;8.55;4.20;;;1.60;78.10;;;;;;5072949;28;20190;-81
2024/01/19 03:25:35;;;;;;;6.70;3.70;;;1.60;78.00;;;;;;5072986;28;20206;-80
2024/01/19 03:28:02;;;;;;;7.32;4.10;;;1.60;77.50;;;;;;5072816;28;20247;-81
2024/01/19 03:30:30;;;;;;;9.85;5.30;;;1.50;77.50;;;;;;5072585;28;20186;-80
2024/01/19 03:32:57;;;;;;;7.63;5.20;;;1.40;77.10;;;;;;5072660;28;20259;-81
2024/01/19 03:35:26;;;;;;;8.70;4.53;;;1.40;77.70;;;;;;5073260;28;20185;-81
2024/01/19 03:37:53;;;;;;;7.93;4.30;;;1.40;78.00;;;;;;5072860;28;20186;-81
2024/01/19 03:40:20;;;;;;;6.68;4.35;;;1.30;78.30;;;;;;5072855;28;20186;-80
2024/01/19 03:42:48;;;;;;;10.93;6.00;;;1.40;78.80;;;;;;5072297;28;20647;-81
2024/01/19 03:45:15;;;;;;;11.93;4.65;;;1.40;78.30;;;;;;5072679;28;20667;-81
2024/01/19 03:47:43;;;;;;;8.90;5.40;;;1.40;78.50;;;;;;5072681;28;20186;-80
2024/01/19 03:50:10;;;;;;;8.18;5.00;;;1.40;78.40;;;;;;5072126;28;20213;-80
2024/01/19 03:52:39;;;;;;;9.55;4.78;;;1.30;77.40;;;;;;5073004;28;20185;-81
2024/01/19 03:55:07;;;;;;;9.15;4.82;;;1.30;77.80;;;;;;5076192;28;20543;-80
2024/01/19 03:57:34;;;;;;;8.57;6.18;;;1.30;78.30;;;;;;5076375;28;20273;-80
2024/01/19 04:00:05;;;;;;;9.15;4.20;;;1.30;77.80;;;;;;5076584;28;20182;-80
2024/01/19 04:02:32;;;;;;;7.00;4.38;;;1.30;77.30;;;;;;5074968;28;20174;-80
2024/01/19 04:04:59;;;;;;;8.00;5.10;;;1.30;77.20;;;;;;5070943;28;20656;-80
2024/01/19 04:07:27;;;;;;;6.95;4.10;;;1.30;77.30;;;;;;5076540;28;20198;-80
2024/01/19 04:09:55;;;;;;;7.18;4.63;;;1.30;77.50;;;;;;5076068;28;20516;-80
2024/01/19 04:12:22;;;;;;;9.68;4.22;;;1.30;77.40;;;;;;5074979;28;20644;-80
2024/01/19 04:14:50;;;;;;;5.00;3.35;;;1.30;77.00;;;;;;5076693;28;20190;-80
2024/01/19 04:17:18;;;;;;;7.28;5.20;;;1.30;76.80;;;;;;5076414;28;20212;-80
2024/01/19 04:19:45;;;;;;;9.57;5.05;;;1.20;77.00;;;;;;5075871;28;20209;-80
2024/01/19 04:22:12;;;;;;;8.65;4.93;;;1.20;77.90;;;;;;5075616;28;20194;-80
2024/01/19 04:24:39;;;;;;;7.18;4.60;;;1.30;78.40;;;;;;5075839;28;20194;-80
2024/01/19 04:27:08;;;;;;;7.35;5.00;;;1.20;78.90;;;;;;5075824;28;20316;-80
2024/01/19 04:29:35;;;;;;;7.68;5.00;;;1.20;79.30;;;;;;5075455;28;20186;-80
2024/01/19 04:32:03;;;;;;;8.18;5.43;;;1.20;79.50;;;;;;5074226;28;20551;-80
2024/01/19 04:34:30;;;;;;;9.60;5.10;;;1.20;79.80;;;;;;5075976;28;20190;-80
2024/01/19 04:36:57;;;;;;;6.32;4.65;;;1.30;79.90;;;;;;5075986;28;20534;-80
2024/01/19 04:39:25;;;;;;;15.85;6.57;;;1.30;79.90;;;;;;5066710;28;20182;-80
2024/01/19 04:41:52;;;;;;;12.25;6.03;;;1.40;80.00;;;;;;5076016;28;20243;-80
2024/01/19 04:44:20;;;;;;;10.15;5.68;;;1.30;79.60;;;;;;5076022;28;20193;-80
2024/01/19 04:46:48;;;;;;;7.38;4.72;;;1.30;79.80;;;;;;5075844;28;20218;-80
2024/01/19 04:49:15;;;;;;;11.95;5.60;;;1.30;79.80;;;;;;5075213;28;20182;-80
2024/01/19 04:51:42;;;;;;;9.13;5.30;;;1.20;79.60;;;;;;5075780;28;20190;-80
2024/01/19 04:54:09;;;;;;;10.50;5.72;;;1.30;80.10;;;;;;5075696;28;20194;-80
2024/01/19 04:56:36;;;;;;;9.38;6.10;;;1.20;80.10;;;;;;5074290;28;20178;-80
2024/01/19 04:59:03;;;;;;;9.82;6.78;;;1.20;80.60;;;;;;5075167;28;20197;-80
2024/01/19 05:01:33;;;;;;;9.15;5.72;;;1.20;80.60;;;;;;5075218;28;20632;-80
2024/01/19 05:04:00;;;;;;;8.15;5.72;;;1.20;81.10;;;;;;5074887;28;20222;-81
2024/01/19 05:06:27;;;;;;;14.02;7.07;;;1.20;81.00;;;;;;5074707;28;20198;-80
2024/01/19 05:08:54;;;;;;;9.48;5.95;;;1.20;81.30;;;;;;5075020;28;20655;-80
2024/01/19 05:11:22;;;;;;;10.70;6.43;;;1.10;81.00;;;;;;5075064;28;20182;-80
2024/01/19 05:13:49;;;;;;;10.13;6.18;;;1.20;81.10;;;;;;5075284;28;20569;-80
2024/01/19 05:16:16;;;;;;;8.75;5.70;;;1.20;80.80;;;;;;5073829;28;20211;-81
2024/01/19 05:18:45;;;;;;;11.52;6.30;;;1.10;80.70;;;;;;5066929;28;20182;-80
2024/01/19 05:21:12;;;;;;;8.32;5.90;;;1.10;80.60;;;;;;5074835;28;20244;-80
2024/01/19 05:23:39;;;;;;;7.88;5.18;;;1.10;80.20;;;;;;5075136;28;20215;-81
2024/01/19 05:26:08;;;;;;;12.75;6.00;;;1.10;80.20;;;;;;5074551;28;20205;-80
2024/01/19 05:28:37;;;;;;;8.20;6.10;;;1.10;80.30;;;;;;5073918;28;20194;-80
2024/01/19 05:31:05;;;;;;;9.73;6.30;;;1.10;80.30;;;;;;5074979;28;20277;-80
2024/01/19 05:33:32;;;;;;;6.50;4.45;;;1.10;80.00;;;;;;5074938;28;20190;-80
2024/01/19 05:36:00;;;;;;;9.10;5.35;;;1.10;80.00;;;;;;5074248;28;20178;-80
2024/01/19 05:38:28;;;;;;;7.93;5.38;;;1.00;79.70;;;;;;5074396;28;20194;-80
2024/01/19 05:40:56;;;;;;;7.70;4.78;;;1.00;79.80;;;;;;5073861;28;20190;-81
2024/01/19 05:43:23;;;;;;;14.35;6.28;;;1.00;79.70;;;;;;5072005;28;20178;-81
2024/01/19 05:45:50;;;;;;;20.73;10.90;;;1.00;79.90;;;;;;5074155;28;20212;-79
2024/01/19 05:48:17;;;;;;;21.35;12.20;;;1.00;79.60;;;;;;5074524;28;20578;-80
2024/01/19 05:50:46;;;;;;;13.15;7.60;;;1.00;79.60;;;;;;5074573;28;20482;-80
2024/01/19 05:53:14;;;;;;;11.23;6.43;;;1.00;79.00;;;;;;5073894;28;20273;-81
2024/01/19 05:55:41;;;;;;;9.80;5.10;;;1.00;78.60;;;;;;5074556;28;20646;-80
2024/01/19 05:58:08;;;;;;;9.15;5.47;;;0.90;78.20;;;;;;5073901;28;20218;-81
2024/01/19 06:00:36;;;;;;;7.85;5.28;;;0.90;78.30;;;;;;5073973;28;20189;-81
2024/01/19 06:03:03;;;;;;;7.82;4.88;;;0.90;78.20;;;;;;5068683;28;20637;-80
2024/01/19 06:05:30;;;;;;;11.50;5.35;;;0.90;78.20;;;;;;5074209;28;20233;-81
2024/01/19 06:07:58;;;;;;;7.85;4.78;;;0.80;77.60;;;;;;5074285;28;20217;-81
2024/01/19 06:10:27;;;;;;;13.80;5.70;;;0.80;77.50;;;;;;5073855;28;20189;-80
2024/01/19 06:12:54;;;;;;;13.15;5.63;;;0.70;77.40;;;;;;5071462;28;20186;-80
2024/01/19 06:15:21;;;;;;;11.30;5.28;;;0.70;77.80;;;;;;5072882;28;20226;-81
2024/01/19 06:17:48;;;;;;;8.52;4.57;;;0.70;78.40;;;;;;5072543;28;20620;-80
2024/01/19 06:20:15;;;;;;;7.35;4.55;;;0.80;79.10;;;;;;5073443;28;20186;-80
2024/01/19 06:22:43;;;;;;;9.65;5.68;;;0.80;79.40;;;;;;5071570;28;20230;-80
2024/01/19 06:25:12;;;;;;;9.30;5.85;;;0.80;79.40;;;;;;5071768;28;20220;-81
2024/01/19 06:27:45;;;;;;;11.57;5.38;;;0.80;80.10;;;;;;5071015;28;20268;-80
2024/01/19 06:30:13;;;;;;;11.85;7.18;;;0.80;79.40;;;;;;5070116;28;20415;-81
2024/01/19 06:32:40;;;;;;;12.48;7.00;;;0.80;79.60;;;;;;5072954;28;20259;-80
2024/01/19 06:35:08;;;;;;;10.80;6.35;;;0.80;79.70;;;;;;5073143;28;20182;-80
2024/01/19 06:37:39;;;;;;;11.88;7.43;;;0.80;79.90;;;;;;5072006;28;20218;-81
2024/01/19 06:47:06;;;;;;;13.40;8.40;;;0.80;79.60;;;;;;5070690;28;20213;-80
2024/01/19 06:49:33;;;;;;;15.63;9.07;;;0.70;79.90;;;;;;5070841;28;20205;-80
2024/01/19 06:52:05;;;;;;;13.82;8.00;;;0.70;80.00;;;;;;5070906;28;20275;-80
2024/01/19 06:54:33;;;;;;;15.45;7.90;;;0.60;80.00;;;;;;5070977;28;20519;-80
2024/01/19 06:57:03;;;;;;;18.15;9.20;;;0.70;80.00;;;;;;5071309;28;20285;-80
2024/01/19 06:59:32;;;;;;;22.08;8.57;;;0.60;79.80;;;;;;5071744;28;20210;-81
2024/01/19 07:02:07;;;;;;;12.55;7.63;;;0.60;80.00;;;;;;5071455;28;20276;-80
2024/01/19 07:04:34;;;;;;;11.40;7.72;;;0.60;80.00;;;;;;5071370;28;20221;-81
2024/01/19 07:07:06;;;;;;;12.02;6.68;;;0.50;80.60;;;;;;5068562;28;20293;-81
2024/01/19 07:09:33;;;;;;;9.90;6.03;;;0.50;81.00;;;;;;5065631;28;20262;-81
2024/01/19 07:12:00;;;;;;;9.10;4.68;;;0.50;81.50;;;;;;5072561;28;20278;-81
2024/01/19 07:14:32;;;;;;;9.98;6.35;;;0.50;81.80;;;;;;5071711;28;20190;-81
2024/01/19 07:17:00;;;;;;;10.45;5.75;;;0.50;81.80;;;;;;5056528;28;20270;-81
2024/01/19 07:19:35;;;;;;;9.88;6.30;;;0.60;81.60;;;;;;5066923;28;20188;-80
2024/01/19 07:22:03;;;;;;;8.07;5.38;;;0.60;81.40;;;;;;5072286;28;20220;-81
2024/01/19 07:24:32;;;;;;;8.23;4.50;;;0.60;80.90;;;;;;5071003;28;20194;-80
2024/01/19 07:26:59;;;;;;;9.48;4.47;;;0.70;80.70;;;;;;5071559;28;20214;-80
2024/01/19 07:29:28;;;;;;;9.10;6.10;;;0.70;80.00;;;;;;5071125;28;20181;-80
2024/01/19 07:31:55;;;;;;;8.10;5.95;;;0.70;79.40;;;;;;5068085;28;20186;-81
2024/01/19 07:34:22;;;;;;;6.80;4.75;;;0.80;79.10;;;;;;5074106;28;20225;-81
2024/01/19 07:36:51;;;;;;;12.68;4.90;;;0.80;78.80;;;;;;5075213;28;20218;-81
2024/01/19 07:39:18;;;;;;;9.35;6.97;;;0.80;78.60;;;;;;5068632;28;20230;-81
2024/01/19 07:41:45;;;;;;;11.20;5.40;;;0.80;78.40;;;;;;5036084;28;20196;-80
2024/01/19 07:44:13;;;;;;;9.13;4.82;;;0.80;78.40;;;;;;5064599;28;20182;-80
2024/01/19 07:46:41;;;;;;;6.13;4.20;;;0.90;78.10;;;;;;5072064;28;20205;-80
2024/01/19 07:49:08;;;;;;;6.07;4.85;;;0.90;78.00;;;;;;5055581;28;20304;-80
2024/01/19 07:51:35;;;;;;;6.20;4.53;;;0.90;77.90;;;;;;5055017;28;20214;-77
2024/01/19 07:54:04;;;;;;;9.20;5.15;;;1.00;78.10;;;;;;5054892;28;20230;-80
2024/01/19 07:56:33;;;;;;;9.98;4.63;;;1.00;78.00;;;;;;5055328;28;20682;-79
2024/01/19 07:59:02;;;;;;;8.68;4.22;;;1.10;78.50;;;;;;5054942;28;20187;-77
2024/01/19 08:01:29;;;;;;;10.05;4.38;;;1.20;77.70;;;;;;5055093;28;20222;-80
2024/01/19 08:03:56;;;;;;;8.45;5.93;;;1.30;77.10;;;;;;5056231;28;20233;-81
2024/01/19 08:06:23;;;;;;;6.85;4.47;;;1.40;76.90;;;;;;5054210;28;20269;-80
2024/01/19 08:09:02;;;;;;;10.98;4.75;;;1.40;76.50;;;;;;5056076;28;20266;-81
2024/01/19 08:11:31;;;;;;;7.07;4.80;;;1.50;75.60;;;;;;5055495;28;20245;-81
2024/01/19 08:14:18;;;;;;;8.75;5.20;;;1.50;75.00;;;;;;5054487;28;20220;-81
2024/01/19 08:16:45;;;;;;;10.05;4.88;;;1.60;74.40;;;;;;5055076;28;20323;-81
2024/01/19 08:19:12;;;;;;;8.13;4.70;;;1.60;74.00;;;;;;5054523;28;20301;-79
2024/01/19 08:21:43;;;;;;;8.35;5.32;;;1.60;74.40;;;;;;5054563;28;20589;-80
2024/01/19 08:24:12;;;;;;;9.40;5.68;;;1.60;73.10;;;;;;5055059;28;20185;-81
2024/01/19 08:26:41;;;;;;;9.98;6.28;;;1.60;72.90;;;;;;5055013;28;20548;-81
2024/01/19 08:29:11;;;;;;;12.45;6.63;;;1.70;72.50;;;;;;5055062;28;20187;-81
2024/01/19 08:31:38;;;;;;;6.22;4.28;;;1.70;72.10;;;;;;5055035;28;20206;-81
2024/01/19 08:34:13;;;;;;;8.60;5.82;;;1.80;73.00;;;;;;5054229;28;20237;-81
2024/01/19 08:36:47;;;;;;;8.20;5.65;;;1.90;72.00;;;;;;5054432;28;20191;-80
2024/01/19 08:39:15;;;;;;;7.70;5.20;;;2.00;71.60;;;;;;5054203;28;20185;-80
2024/01/19 08:41:47;;;;;;;8.38;4.45;;;2.20;71.80;;;;;;5054258;28;20679;-81
2024/01/19 08:44:14;;;;;;;6.47;3.85;;;2.20;71.40;;;;;;5055110;28;20179;-81
2024/01/19 08:46:49;;;;;;;13.13;4.13;;;2.20;70.90;;;;;;5054415;28;20320;-81
2024/01/19 08:49:16;;;;;;;5.45;3.50;;;2.20;70.20;;;;;;5054317;28;20277;-80
2024/01/19 08:51:45;;;;;;;21.63;9.50;;;2.20;70.10;;;;;;5055026;28;20175;-81
2024/01/19 08:54:12;;;;;;;9.00;5.30;;;2.20;69.40;;;;;;5053776;28;20636;-81
2024/01/19 08:56:39;;;;;;;6.82;4.10;;;2.30;69.00;;;;;;5053725;28;20214;-81
2024/01/19 08:59:12;;;;;;;5.93;4.20;;;2.30;68.70;;;;;;5053335;28;20222;-79
2024/01/19 09:01:39;;;;;;;8.40;4.05;;;2.30;68.80;;;;;;5054865;28;20202;-81
2024/01/19 09:04:12;;;;;;;5.63;4.07;;;2.40;68.30;;;;;;5054474;28;20244;-81
2024/01/19 09:06:39;;;;;;;6.97;3.90;;;2.40;68.80;;;;;;5054153;28;20237;-80
2024/01/19 09:09:08;;;;;;;20.83;8.98;;;2.50;68.70;;;;;;5054223;28;20187;-80
2024/01/19 09:11:35;;;;;;;7.20;4.30;;;2.50;68.20;;;;;;5055288;28;20179;-81
2024/01/19 09:14:02;;;;;;;5.88;3.72;;;2.60;68.30;;;;;;5053650;28;20244;-81
2024/01/19 09:16:37;;;;;;;6.70;4.15;;;2.70;67.50;;;;;;5053581;28;20276;-81
2024/01/19 09:19:03;;;;;;;8.02;3.85;;;2.90;66.20;;;;;;5054699;28;20206;-76
2024/01/19 09:21:36;;;;;;;7.47;4.55;;;3.00;65.90;;;;;;5054154;28;20269;-81
2024/01/19 09:24:04;;;;;;;9.05;5.20;;;3.20;65.80;;;;;;5053930;28;20175;-81
2024/01/19 09:26:31;;;;;;;7.95;4.35;;;3.40;66.00;;;;;;5054089;28;20211;-81
2024/01/19 09:29:00;;;;;;;8.60;4.43;;;3.50;65.20;;;;;;5053738;28;20277;-81
2024/01/19 09:31:33;;;;;;;5.50;3.83;;;3.50;64.70;;;;;;5053179;28;20222;-81
2024/01/19 09:34:01;;;;;;;6.75;4.20;;;3.40;63.30;;;;;;5053562;28;20680;-81
2024/01/19 09:36:31;;;;;;;41.95;16.75;;;3.40;63.00;;;;;;5052913;28;20278;-75
2024/01/19 09:38:58;;;;;;;32.78;13.68;;;3.40;63.30;;;;;;5054095;28;20206;-82
2024/01/19 09:41:46;;;;;;;7.47;4.43;;;3.40;63.60;;;;;;5053267;28;20268;-82
2024/01/19 09:44:16;;;;;;;6.90;4.97;;;3.50;62.00;;;;;;5054024;28;20171;-81
2024/01/19 09:47:04;;;;;;;5.40;4.00;;;3.50;61.50;;;;;;5052784;28;20211;-82
2024/01/19 09:49:42;;;;;;;7.03;3.17;;;3.40;61.20;;;;;;5053791;28;20213;-82
2024/01/19 09:52:24;;;;;;;6.18;4.07;;;3.40;62.10;;;;;;5053950;28;20186;-82
2024/01/19 09:54:52;;;;;;;7.90;4.40;;;3.40;60.70;;;;;;5052897;28;20526;-82
2024/01/19 09:57:20;;;;;;;11.27;5.20;;;3.40;59.30;;;;;;5052917;28;20264;-82
2024/01/19 09:59:47;;;;;;;7.65;5.18;;;3.30;58.60;;;;;;5053379;28;20171;-82
2024/01/19 10:02:24;;;;;;;8.07;4.85;;;3.20;59.60;;;;;;5053086;28;20608;-82
2024/01/19 10:04:53;;;;;;;10.68;6.55;;;3.30;60.60;;;;;;5053564;28;20570;-77
2024/01/19 10:07:32;;;;;;;8.00;6.10;;;3.20;59.40;;;;;;5053386;28;20215;-82
2024/01/19 10:09:59;;;;;;;9.10;5.82;;;3.20;59.00;;;;;;5053643;28;20266;-82
2024/01/19 10:12:31;;;;;;;8.80;6.35;;;3.30;59.20;;;;;;5053173;28;20644;-82
2024/01/19 10:14:59;;;;;;;8.20;5.50;;;3.30;58.90;;;;;;5052588;28;20246;-82
2024/01/19 10:17:28;;;;;;;12.88;6.43;;;3.30;58.60;;;;;;5053180;28;20201;-83
2024/01/19 10:20:03;;;;;;;12.65;6.93;;;3.30;59.00;;;;;;5052968;28;20194;-82
2024/01/19 10:22:32;;;;;;;10.20;6.53;;;3.40;58.90;;;;;;5052784;28;20190;-82
2024/01/19 10:25:11;;;;;;;9.70;5.82;;;3.40;58.80;;;;;;5053692;28;20175;-82
2024/01/19 10:27:45;;;;;;;14.40;5.78;;;3.40;57.60;;;;;;5053097;28;20205;-82
2024/01/19 10:30:14;;;;;;;14.65;6.30;;;3.30;58.40;;;;;;5053168;28;20531;-82
2024/01/19 10:32:49;;;;;;;9.02;5.95;;;3.40;58.80;;;;;;5052820;28;20277;-82
2024/01/19 10:35:20;;;;;;;8.77;6.03;;;3.40;59.00;;;;;;5052708;28;20171;-75
2024/01/19 10:37:47;;;;;;;8.77;5.85;;;3.50;59.10;;;;;;5053516;28;20232;-82
2024/01/19 10:40:21;;;;;;;8.60;6.18;;;3.50;58.90;;;;;;5053461;28;20498;-82
2024/01/19 10:43:22;;;;;;;11.63;7.10;;;3.60;59.70;;;;;;5053263;28;20177;-81
2024/01/19 10:45:49;;;;;;;9.38;5.70;;;3.70;58.80;;;;;;5052694;28;20211;-82
2024/01/19 10:48:26;;;;;;;9.65;6.50;;;3.80;58.30;;;;;;5052050;28;20207;-82
2024/01/19 10:51:02;;;;;;;11.18;6.88;;;3.80;58.50;;;;;;5052899;28;20174;-82
2024/01/19 10:53:39;;;;;;;12.27;5.38;;;3.80;58.50;;;;;;5052997;28;20678;-82
2024/01/19 10:56:07;;;;;;;8.02;6.45;;;3.90;58.90;;;;;;5052399;28;20218;-80
2024/01/19 10:58:37;;;;;;;10.52;5.68;;;4.00;59.60;;;;;;5052122;28;20278;-82
2024/01/19 11:01:16;;;;;;;8.93;6.40;;;4.00;57.90;;;;;;5052377;28;20266;-81
2024/01/19 11:03:43;;;;;;;10.82;7.07;;;4.00;57.70;;;;;;5051508;28;20206;-81
2024/01/19 11:06:15;;;;;;;8.70;6.45;;;4.00;57.60;;;;;;5052426;28;20193;-82
2024/01/19 11:08:45;;;;;;;10.95;7.03;;;4.00;58.10;;;;;;5052543;28;20285;-82
2024/01/19 11:11:13;;;;;;;6.13;4.63;;;3.80;57.50;;;;;;5051289;28;20248;-82
2024/01/19 11:13:43;;;;;;;13.30;6.10;;;3.70;58.30;;;;;;5052260;28;20197;-82
2024/01/19 11:16:12;;;;;;;9.98;6.15;;;3.70;58.80;;;;;;5051006;28;20310;-82
2024/01/19 11:18:40;;;;;;;11.88;5.57;;;3.70;59.70;;;;;;5052167;28;20191;-81
2024/01/19 11:21:08;;;;;;;7.40;5.72;;;3.80;59.80;;;;;;5052200;28;20171;-78
2024/01/19 11:23:37;;;;;;;15.45;5.90;;;3.80;59.90;;;;;;5052098;28;20221;-81
2024/01/19 11:26:14;;;;;;;8.90;5.43;;;3.90;60.20;;;;;;5052352;28;20271;-81
2024/01/19 11:28:52;;;;;;;7.63;5.03;;;4.00;60.70;;;;;;5052514;28;20238;-82
2024/01/19 11:31:22;;;;;;;8.23;6.20;;;4.10;59.70;;;;;;5052708;28;20221;-81
2024/01/19 11:33:52;;;;;;;16.15;6.82;;;4.20;59.40;;;;;;5052263;28;20244;-81
2024/01/19 11:36:47;;;;;;;9.05;5.18;;;4.10;58.90;;;;;;5052331;28;20272;-81
2024/01/19 11:39:40;;;;;;;12.65;7.10;;;4.10;58.40;;;;;;5052474;28;20180;-81
2024/01/19 11:42:08;;;;;;;13.93;7.00;;;3.90;58.00;;;;;;5052586;28;20269;-81
2024/01/19 11:44:48;;;;;;;13.50;6.57;;;3.80;57.80;;;;;;5052409;28;20233;-76
2024/01/19 11:47:43;;;;;;;8.25;5.75;;;3.80;59.30;;;;;;5052255;28;20731;-81
2024/01/19 11:50:12;;;;;;;9.73;5.80;;;3.90;60.20;;;;;;5051896;28;20183;-81
2024/01/19 11:52:44;;;;;;;7.35;5.10;;;4.00;60.30;;;;;;5052263;28;20567;-76
2024/01/19 11:55:48;;;;;;;7.10;5.65;;;4.20;60.30;;;;;;5052314;28;20206;-81
2024/01/19 11:58:28;;;;;;;9.48;5.30;;;4.30;58.00;;;;;;4952187;29;20186;-81
2024/01/19 12:00:57;;;;;;;6.35;4.70;;;4.50;58.40;;;;;;4952229;29;20654;-80
2024/01/19 12:03:24;;;;;;;8.60;5.25;;;4.70;58.80;;;;;;5009125;28;20233;-80
2024/01/19 12:05:54;;;;;;;8.40;6.20;;;4.80;59.10;;;;;;5052141;28;20215;-81
2024/01/19 12:08:27;;;;;;;6.82;5.07;;;4.90;59.10;;;;;;5052096;28;20214;-80
2024/01/19 12:11:09;;;;;;;8.70;5.03;;;5.00;57.40;;;;;;5052164;28;20222;-81
2024/01/19 12:13:39;;;;;;;8.60;4.72;;;5.00;55.30;;;;;;5053096;28;20183;-80
2024/01/19 12:16:07;;;;;;;6.90;4.60;;;5.10;54.60;;;;;;5055291;28;20264;-80
2024/01/19 12:18:40;;;;;;;7.30;4.97;;;5.00;53.10;;;;;;5055833;28;20190;-80
2024/01/19 12:21:08;;;;;;;6.57;4.07;;;5.00;54.50;;;;;;5055892;28;20175;-80
2024/01/19 12:23:39;;;;;;;10.00;5.03;;;5.00;53.90;;;;;;5055799;28;20631;-79
2024/01/19 12:26:07;;;;;;;7.00;4.85;;;4.80;53.70;;;;;;5056093;28;20175;-80
2024/01/19 12:28:34;;;;;;;6.85;4.60;;;4.80;55.00;;;;;;5055619;28;20207;-80
2024/01/19 12:31:02;;;;;;;11.80;5.82;;;4.90;55.70;;;;;;5055500;28;20218;-80
2024/01/19 12:33:30;;;;;;;7.32;4.10;;;5.10;55.20;;;;;;5055357;28;20187;-80
2024/01/19 12:36:10;;;;;;;7.95;5.60;;;5.20;54.40;;;;;;5055588;28;20262;-79
2024/01/19 12:38:39;;;;;;;8.70;5.40;;;5.60;53.30;;;;;;5055471;28;20179;-80
2024/01/19 12:41:14;;;;;;;7.90;3.80;;;5.60;52.90;;;;;;5055343;28;20194;-81
2024/01/19 12:43:43;;;;;;;6.38;3.75;;;5.60;52.70;;;;;;5055695;28;20229;-80
2024/01/19 12:46:12;;;;;;;8.27;4.53;;;5.50;52.50;;;;;;5054855;28;20273;-80
2024/01/19 12:48:39;;;;;;;9.68;3.75;;;5.40;54.10;;;;;;5055326;28;20210;-80
2024/01/19 12:51:11;;;;;;;3.65;2.42;;;5.40;53.70;;;;;;5055357;28;20241;-80
2024/01/19 12:53:38;;;;;;;4.43;2.45;;;5.30;52.30;;;;;;5055683;28;20568;-80
2024/01/19 12:56:23;;;;;;;3.20;2.10;;;5.20;51.30;;;;;;5055460;28;20269;-80
2024/01/19 12:58:50;;;;;;;5.78;2.58;;;5.10;50.20;;;;;;5055460;28;20205;-80
2024/01/19 13:01:19;;;;;;;2.97;2.15;;;5.00;49.30;;;;;;5054811;28;20227;-80
2024/01/19 13:03:46;;;;;;;3.80;2.72;;;4.90;50.40;;;;;;5054467;28;20190;-80
2024/01/19 13:06:13;;;;;;;2.85;1.80;;;4.90;50.60;;;;;;5054791;28;20187;-80
2024/01/19 13:08:41;;;;;;;3.47;1.75;;;4.90;49.30;;;;;;5054987;28;20618;-80
2024/01/19 13:11:09;;;;;;;4.65;2.20;;;4.80;49.60;;;;;;5054316;28;20237;-80
2024/01/19 13:13:38;;;;;;;4.07;2.45;;;4.80;50.10;;;;;;5054730;28;20205;-80